ADDS METAR Data INFO
IDs: Format: Raw Decoded Include TAF

Data at: 0918 UTC 13 Dec 2017

KSPI 130852Z AUTO 20009KT 10SM OVC080 M02/M12 A2988 RMK AO2 SLP124 T10221122 56033
KSPI 130752Z AUTO 21007KT 10SM CLR M04/M13 A2991 RMK AO2 SLP135 T10391133
KSPI 130652Z AUTO 22005KT 10SM CLR M04/M14 A2994 RMK AO2 SLP145 T10391144
KSPI 130552Z AUTO 22006KT 10SM CLR M04/M14 A2998 RMK AO2 SLP158 T10441144 11017 21072 400331072 58028
KSPI 130452Z AUTO 22005KT 10SM CLR M05/M15 A3001 RMK AO2 SLP169 T10501150
KSPI 130352Z AUTO 19003KT 10SM CLR M06/M14 A3004 RMK AO2 SLP178 T10561144
KSPI 130252Z 20005KT 10SM CLR M04/M15 A3006 RMK AO2 SLP187 T10441150 58012
KSPI 130152Z 22003KT 10SM CLR M04/M15 A3008 RMK AO2 SLP193 T10391150
KSPI 130052Z 28003KT 10SM OVC100 M02/M15 A3010 RMK AO2 SLP199 T10221150
KSPI 122352Z 29006KT 10SM OVC110 M02/M15 A3010 RMK AO2 SLP198 T10221150 10006 21039 58010
KSPI 122252Z 29006KT 10SM CLR M02/M16 A3011 RMK AO2 SLP204 T10221161
KSPI 122152Z 29009KT 10SM CLR M01/M16 A3012 RMK AO2 SLP205 T10111161
KSPI 122052Z 30014KT 10SM CLR 00/M16 A3013 RMK AO2 SLP208 T00001161 56016
KSPI 121952Z 29013KT 10SM CLR 00/M15 A3013 RMK AO2 SLP207 T00001150
KSPI 121852Z 30012G21KT 10SM CLR M01/M14 A3015 RMK AO2 SLP214 T10061139
KSPI 121752Z 30014KT 10SM CLR M01/M13 A3018 RMK AO2 SLP223 T10061128 11006 21050 58008
KSPI 121652Z 30014KT 10SM CLR M02/M11 A3020 RMK AO2 SLP233 T10171111
KSPI 121552Z 31011G20KT 10SM CLR M03/M11 A3021 RMK AO2 SLP234 T10281106
KSPI 121452Z 30013G22KT 10SM CLR M04/M09 A3020 RMK AO2 SLP232 T10391094 51018
KSPI 121352Z 32013G21KT 10SM CLR M04/M10 A3019 RMK AO2 SLP230 T10441100
KSPI 121252Z 31008KT 10SM CLR M05/M10 A3018 RMK AO2 SLP225 T10501100
KSPI 121152Z 32013G21KT 10SM CLR M04/M09 A3015 RMK AO2 SLP213 T10391094 10033 21039 51022
KSPI 121052Z AUTO 33012G24KT 10SM FEW030 M02/M09 A3013 RMK AO2 SLP207 T10221089
KSPI 120952Z AUTO 32014G24KT 10SM OVC031 M01/M08 A3010 RMK AO2 PK WND 32027/0931 SLP197 T10111078
KSPI 120852Z AUTO 32022G31KT 10SM BKN035 01/M07 A3008 RMK AO2 PK WND 31031/0851 SLP188 T00061072 53023
KSPI 120752Z AUTO 32012KT 10SM OVC032 02/M05 A3006 RMK AO2 PK WND 33029/0705 SLP181 T00171050
KSPI 120713Z AUTO 34017G29KT 10SM OVC031 02/M05 A3003 RMK AO2 PK WND 33029/0705 T00221050
KSPI 120652Z AUTO 32022G31KT 10SM OVC025 02/M04 A3003 RMK AO2 PK WND 32034/0633 SLP172 T00221039
KSPI 120552Z AUTO 33018G25KT 10SM OVC019 03/M01 A3001 RMK AO2 PK WND 33031/0455 SLP165 60000 T00331011 10072 20033 401171044 51027
KSPI 120501Z AUTO 33021G31KT 8SM OVC015 03/01 A3000 RMK AO2 PK WND 33031/0455 T00330006
KSPI 120452Z AUTO 33019G29KT 8SM OVC013 04/01 A2999 RMK AO2 PK WND 32030/0404 SLP160 T00390006
KSPI 120426Z AUTO 31012KT 10SM OVC014 04/01 A2998 RMK AO2 PK WND 32030/0404 T00440011
KSPI 120413Z AUTO 32020G30KT 10SM OVC015 04/01 A2997 RMK AO2 PK WND 32030/0404 T00440011
KSPI 120352Z 32017G29KT 10SM OVC014 04/01 A2996 RMK AO2 PK WND 31032/0342 SLP147 T00440011
KSPI 120252Z 32021G27KT 10SM OVC014 04/01 A2993 RMK AO2 PK WND 33030/0226 RAB12E22 SLP138 P0000 60000 T00390011 51033
KSPI 120152Z 30017G27KT 10SM OVC020 05/01 A2989 RMK AO2 PK WND 32031/0058 SLP127 T00500006
KSPI 120052Z 32020G29KT 10SM OVC024 06/01 A2986 RMK AO2 PK WND 34032/0041 SLP116 T00610006
KSPI 120017Z 30020G29KT 10SM OVC028 07/01 A2984 RMK AO2 PK WND 30030/0006 T00720006
KSPI 112352Z 30016G23KT 10SM BKN032 OVC040 07/01 A2983 RMK AO2 PK WND 30031/2322 SLP104 T00720006 10117 20072 51038
KSPI 112252Z 30022G33KT 10SM BKN041 OVC047 08/00 A2979 RMK AO2 PK WND 28036/2215 SLP092 T00830000
KSPI 112152Z 30025G32KT 10SM OVC050 09/M01 A2976 RMK AO2 PK WND 28035/2119 SLP080 T00941011